createdAt,value
2023-02-11T00:01:52.823Z,103666.91
2023-02-11T00:03:59.015Z,103656.44
2023-02-11T00:06:05.448Z,103654.63
2023-02-11T00:08:10.322Z,103654.63
2023-02-11T00:10:18.592Z,103653.81
2023-02-11T00:12:23.736Z,103658.91
2023-02-11T00:14:28.835Z,103654.50
2023-02-11T00:16:38.011Z,103657.22
2023-02-11T00:18:43.170Z,103650.28
2023-02-11T00:20:56.679Z,103654.63
2023-02-11T00:23:03.172Z,103642.56
2023-02-11T00:25:09.260Z,103645.13
2023-02-11T00:27:16.775Z,103654.69
2023-02-11T00:29:21.688Z,103649.53
2023-02-11T00:31:27.618Z,103648.72
2023-02-11T00:33:37.204Z,103650.56
2023-02-11T00:35:42.349Z,103641.88
2023-02-11T00:37:47.252Z,103631.38
2023-02-11T00:39:53.192Z,103628.75
2023-02-11T00:41:58.770Z,103628.78
2023-02-11T00:44:06.821Z,103622.66
2023-02-11T00:46:12.215Z,103615.72
2023-02-11T00:48:17.388Z,103619.19
2023-02-11T00:50:23.350Z,103613.91
2023-02-11T00:52:30.640Z,103622.66
2023-02-11T00:54:36.383Z,103626.88
2023-02-11T00:56:41.450Z,103629.50
2023-02-11T00:58:46.695Z,103614.78
2023-02-11T01:00:54.762Z,103620.22
2023-02-11T01:03:00.114Z,103625.44
2023-02-11T01:05:07.576Z,103625.47
2023-02-11T01:07:12.499Z,103633.34
2023-02-11T01:09:21.334Z,103639.38
2023-02-11T01:11:26.588Z,103643.75
2023-02-11T01:13:33.737Z,103649.06
2023-02-11T01:15:40.419Z,103639.44
2023-02-11T01:17:51.223Z,103635.97
2023-02-11T01:19:58.993Z,103624.59
2023-02-11T01:22:03.949Z,103619.44
2023-02-11T01:24:11.722Z,103615.88
2023-02-11T01:26:17.018Z,103608.84
2023-02-11T01:28:24.793Z,103619.31
2023-02-11T01:30:29.883Z,103635.78
2023-02-11T01:32:34.748Z,103634.81
2023-02-11T01:34:42.863Z,103628.69
2023-02-11T01:36:48.104Z,103627.81
2023-02-11T01:38:53.524Z,103624.28
2023-02-11T01:41:01.922Z,103606.75
2023-02-11T01:43:07.054Z,103607.44
2023-02-11T01:45:41.910Z,103603.88
2023-02-11T01:47:46.813Z,103611.63
2023-02-11T01:50:00.913Z,103605.44
2023-02-11T01:52:12.959Z,103597.47
2023-02-11T01:54:38.050Z,103614.72
2023-02-11T01:57:00.806Z,103604.19
2023-02-11T01:59:10.638Z,103608.31
2023-02-11T02:01:22.778Z,103596.09
2023-02-11T02:03:28.494Z,103603.84
2023-02-11T02:05:43.062Z,103596.00
2023-02-11T02:07:54.205Z,103606.34
2023-02-11T02:10:04.918Z,103603.78
2023-02-11T02:12:10.057Z,103602.84
2023-02-11T02:14:17.044Z,103604.53
2023-02-11T02:16:27.973Z,103606.28
2023-02-11T02:18:47.068Z,103605.19
2023-02-11T02:21:25.324Z,103603.44
2023-02-11T02:23:47.015Z,103602.44
2023-02-11T02:26:12.893Z,103600.59
2023-02-11T02:28:36.589Z,103591.69
2023-02-11T02:31:04.006Z,103589.81
2023-02-11T02:33:28.981Z,103594.88
2023-02-11T02:35:42.872Z,103598.34
2023-02-11T02:38:02.863Z,103602.69
2023-02-11T02:40:16.064Z,103606.88
2023-02-11T02:42:21.519Z,103615.41
2023-02-11T02:44:27.280Z,103623.94
2023-02-11T02:46:37.167Z,103629.34
2023-02-11T02:48:45.270Z,103632.81
2023-02-11T02:50:58.125Z,103630.06
2023-02-11T02:53:15.869Z,103638.81
2023-02-11T02:55:47.921Z,103629.19
2023-02-11T02:58:22.590Z,103626.59
2023-02-11T03:00:38.848Z,103614.34
2023-02-11T03:02:54.112Z,103600.38
2023-02-11T03:05:09.805Z,103598.34
2023-02-11T03:07:25.309Z,103599.31
2023-02-11T03:09:39.210Z,103599.94
2023-02-11T03:11:45.408Z,103599.22
2023-02-11T03:13:53.466Z,103600.09
2023-02-11T03:16:03.394Z,103596.69
2023-02-11T03:18:11.932Z,103612.63
2023-02-11T03:20:23.439Z,103601.38
2023-02-11T03:22:31.441Z,103603.44
2023-02-11T03:24:40.409Z,103595.47
2023-02-11T03:26:50.206Z,103597.19
2023-02-11T03:29:03.652Z,103602.47
2023-02-11T03:31:17.102Z,103609.66
2023-02-11T03:33:31.250Z,103611.31
2023-02-11T03:35:46.617Z,103604.63
2023-02-11T03:37:57.947Z,103604.56
2023-02-11T03:40:10.963Z,103588.84
2023-02-11T03:42:18.892Z,103589.84
2023-02-11T03:44:25.976Z,103579.31
2023-02-11T03:46:36.713Z,103581.06
2023-02-11T03:48:45.142Z,103578.25
2023-02-11T03:50:55.844Z,103571.50
2023-02-11T03:53:10.924Z,103577.66
2023-02-11T03:55:20.213Z,103577.56
2023-02-11T03:57:25.247Z,103582.72
2023-02-11T03:59:30.288Z,103587.78
2023-02-11T04:01:36.531Z,103590.25
2023-02-11T04:03:41.676Z,103582.38
2023-02-11T04:05:46.808Z,103585.03
2023-02-11T04:07:54.431Z,103585.06
2023-02-11T04:10:00.939Z,103581.44
2023-02-11T04:12:06.192Z,103586.56
2023-02-11T04:14:11.464Z,103584.75
2023-02-11T04:16:16.598Z,103590.25
2023-02-11T04:18:21.693Z,103589.22
2023-02-11T04:20:27.044Z,103599.69
2023-02-11T04:22:33.793Z,103594.38
2023-02-11T04:24:44.472Z,103592.56
2023-02-11T04:26:49.599Z,103593.34
2023-02-11T04:28:54.832Z,103594.09
2023-02-11T04:31:01.819Z,103593.06
2023-02-11T04:33:07.184Z,103592.97
2023-02-11T04:35:12.190Z,103590.25
2023-02-11T04:37:17.517Z,103576.34
2023-02-11T04:39:22.627Z,103593.72
2023-02-11T04:41:30.561Z,103587.66
2023-02-11T04:43:37.845Z,103586.03
2023-02-11T04:45:43.296Z,103587.75
2023-02-11T04:47:50.976Z,103590.38
2023-02-11T04:49:56.639Z,103592.97
2023-02-11T04:52:06.791Z,103588.72
2023-02-11T04:54:12.220Z,103580.78
2023-02-11T04:56:17.645Z,103584.31
2023-02-11T04:58:25.246Z,103585.09
2023-02-11T05:00:30.458Z,103586.03
2023-02-11T05:02:37.073Z,103584.16
2023-02-11T05:04:42.140Z,103583.44
2023-02-11T05:06:47.203Z,103579.97
2023-02-11T05:08:52.762Z,103580.75
2023-02-11T05:10:57.760Z,103578.00
2023-02-11T05:13:02.939Z,103571.38
2023-02-11T05:15:15.046Z,103573.81
2023-02-11T05:17:20.063Z,103579.09
2023-02-11T05:19:28.177Z,103583.53
2023-02-11T05:21:32.996Z,103579.00
2023-02-11T05:23:41.982Z,103586.84
2023-02-11T05:25:47.858Z,103585.91
2023-02-11T05:27:52.874Z,103590.16
2023-02-11T05:29:57.773Z,103590.22
2023-02-11T05:32:05.192Z,103594.56
2023-02-11T05:34:11.650Z,103600.50
2023-02-11T05:36:16.962Z,103603.06
2023-02-11T05:38:21.919Z,103610.00
2023-02-11T05:40:26.871Z,103609.16
2023-02-11T05:42:31.845Z,103611.63
2023-02-11T05:44:36.707Z,103614.25
2023-02-11T05:46:42.027Z,103618.56
2023-02-11T05:48:49.790Z,103611.81
2023-02-11T05:50:55.735Z,103610.97
2023-02-11T05:53:00.717Z,103604.97
2023-02-11T05:55:06.071Z,103596.16
2023-02-11T05:57:11.013Z,103602.38
2023-02-11T05:59:17.461Z,103599.09
2023-02-11T06:01:22.568Z,103604.34
2023-02-11T06:03:27.654Z,103610.28
2023-02-11T06:05:38.398Z,103608.59
2023-02-11T06:07:44.760Z,103610.28
2023-02-11T06:09:49.545Z,103614.63
2023-02-11T06:11:59.941Z,103606.44
2023-02-11T06:14:06.265Z,103601.22
2023-02-11T06:16:12.195Z,103597.75
2023-02-11T06:18:19.192Z,103600.25
2023-02-11T06:20:24.128Z,103595.72
2023-02-11T06:22:32.017Z,103604.25
2023-02-11T06:24:54.992Z,103605.13
2023-02-11T06:27:02.417Z,103612.03
2023-02-11T06:29:07.453Z,103611.09
2023-02-11T06:31:13.213Z,103622.38
2023-02-11T06:33:20.765Z,103620.66
2023-02-11T06:35:28.018Z,103610.00
2023-02-11T06:37:37.401Z,103614.41
2023-02-11T06:39:43.242Z,103615.28
2023-02-11T06:41:53.867Z,103622.00
2023-02-11T06:43:59.148Z,103617.72
2023-02-11T06:46:04.034Z,103621.13
2023-02-11T06:48:15.456Z,103615.88
2023-02-11T06:50:20.362Z,103621.13
2023-02-11T06:52:26.408Z,103625.38
2023-02-11T06:54:36.862Z,103618.38
2023-02-11T06:56:44.460Z,103617.38
2023-02-11T06:58:51.550Z,103633.00
2023-02-11T07:00:59.017Z,103616.47
2023-02-11T07:03:05.054Z,103613.41
2023-02-11T07:05:11.436Z,103628.13
2023-02-11T07:07:19.542Z,103624.41
2023-02-11T07:09:24.998Z,103622.94
2023-02-11T07:11:33.798Z,103628.75
2023-02-11T07:13:40.672Z,103631.19
2023-02-11T07:15:46.015Z,103638.13
2023-02-11T07:17:54.043Z,103633.06
2023-02-11T07:19:58.957Z,103644.38
2023-02-11T07:22:06.024Z,103642.53
2023-02-11T07:24:12.101Z,103633.00
2023-02-11T07:26:23.157Z,103640.44
2023-02-11T07:28:31.086Z,103639.63
2023-02-11T07:30:39.472Z,103640.34
2023-02-11T07:32:44.714Z,103641.22
2023-02-11T07:34:50.105Z,103650.81
2023-02-11T07:36:55.382Z,103646.22
2023-02-11T07:39:00.585Z,103652.63
2023-02-11T07:41:06.619Z,103646.00
2023-02-11T07:43:12.084Z,103646.91
2023-02-11T07:45:20.905Z,103656.44
2023-02-11T07:47:25.777Z,103656.59
2023-02-11T07:49:31.067Z,103655.84
2023-02-11T07:51:38.251Z,103657.72
2023-02-11T07:53:47.830Z,103651.00
2023-02-11T07:55:53.091Z,103650.16
2023-02-11T07:57:58.204Z,103660.00
2023-02-11T08:00:05.006Z,103663.88
2023-02-11T08:02:16.103Z,103662.38
2023-02-11T08:04:21.226Z,103658.97
2023-02-11T08:06:32.211Z,103660.09
2023-02-11T08:08:37.722Z,103664.72
2023-02-11T08:10:44.569Z,103664.78
2023-02-11T08:12:54.309Z,103670.16
2023-02-11T08:15:00.925Z,103673.84
2023-02-11T08:17:06.798Z,103670.53
2023-02-11T08:19:17.552Z,103674.09
2023-02-11T08:21:25.016Z,103673.28
2023-02-11T08:23:30.946Z,103670.81
2023-02-11T08:25:36.344Z,103667.47
2023-02-11T08:27:43.624Z,103665.69
2023-02-11T08:29:50.401Z,103681.59
2023-02-11T08:31:56.719Z,103675.53
2023-02-11T08:34:03.713Z,103687.91
2023-02-11T08:36:15.683Z,103682.78
2023-02-11T08:38:21.893Z,103692.50
2023-02-11T08:40:29.943Z,103680.28
2023-02-11T08:42:47.503Z,103692.59
2023-02-11T08:44:52.635Z,103696.28
2023-02-11T08:47:00.327Z,103701.69
2023-02-11T08:49:08.038Z,103705.31
2023-02-11T08:51:27.852Z,103705.31
2023-02-11T08:53:37.438Z,103714.16
2023-02-11T08:55:43.612Z,103702.91
2023-02-11T08:57:49.289Z,103708.34
2023-02-11T08:59:57.484Z,103708.50
2023-02-11T09:02:04.989Z,103705.22
2023-02-11T09:04:11.104Z,103714.09
2023-02-11T09:06:19.844Z,103706.28
2023-02-11T09:08:26.059Z,103710.81
2023-02-11T09:10:31.297Z,103711.00
2023-02-11T09:12:36.541Z,103707.66
2023-02-11T09:14:42.119Z,103711.25
2023-02-11T09:16:48.113Z,103705.31
2023-02-11T09:18:55.677Z,103712.47
2023-02-11T09:21:06.198Z,103705.56
2023-02-11T09:23:18.675Z,103721.53
2023-02-11T09:25:27.252Z,103713.00
2023-02-11T09:27:32.967Z,103706.91
2023-02-11T09:29:41.615Z,103709.56
2023-02-11T09:31:50.593Z,103713.22
2023-02-11T09:34:00.879Z,103718.47
2023-02-11T09:36:06.949Z,103724.72
2023-02-11T09:38:16.371Z,103714.25
2023-02-11T09:40:23.201Z,103717.84
2023-02-11T09:42:44.522Z,103723.19
2023-02-11T09:44:53.227Z,103731.25
2023-02-11T09:47:01.696Z,103721.66
2023-02-11T09:49:09.463Z,103727.81
2023-02-11T09:51:24.007Z,103721.97
2023-02-11T09:53:41.673Z,103726.47
2023-02-11T09:55:55.969Z,103718.75
2023-02-11T09:58:08.092Z,103724.13
2023-02-11T10:00:22.968Z,103715.63
2023-02-11T10:02:38.317Z,103715.78
2023-02-11T10:05:04.173Z,103718.47
2023-02-11T10:07:21.884Z,103731.72
2023-02-11T10:09:50.574Z,103730.78
2023-02-11T10:12:06.612Z,103726.53
2023-02-11T10:14:24.702Z,103736.25
2023-02-11T10:16:47.881Z,103738.00
2023-02-11T10:19:22.058Z,103744.19
2023-02-11T10:21:41.861Z,103753.09
2023-02-11T10:23:52.167Z,103756.75
2023-02-11T10:26:02.569Z,103757.69
2023-02-11T10:28:19.878Z,103764.78
2023-02-11T10:30:33.142Z,103760.38
2023-02-11T10:32:47.986Z,103770.00
2023-02-11T10:34:53.910Z,103768.38
2023-02-11T10:37:02.474Z,103768.53
2023-02-11T10:39:15.420Z,103771.19
2023-02-11T10:41:27.170Z,103774.75
2023-02-11T10:43:36.002Z,103769.56
2023-02-11T10:45:50.846Z,103770.44
2023-02-11T10:47:56.206Z,103773.00
2023-02-11T10:50:03.907Z,103779.28
2023-02-11T10:52:18.172Z,103784.53
2023-02-11T10:54:37.695Z,103783.63
2023-02-11T10:56:53.779Z,103783.72
2023-02-11T10:59:02.324Z,103789.84
2023-02-11T11:01:23.420Z,103799.47
2023-02-11T11:03:31.942Z,103802.13
2023-02-11T11:05:48.732Z,103809.13
2023-02-11T11:08:00.987Z,103808.31
2023-02-11T11:10:09.974Z,103804.03
2023-02-11T11:12:35.212Z,103803.16
2023-02-11T11:14:41.722Z,103807.59
2023-02-11T11:16:55.812Z,103805.84
2023-02-11T11:19:24.618Z,103804.97
2023-02-11T11:21:45.277Z,103801.53
2023-02-11T11:23:56.553Z,103798.94
2023-02-11T11:26:09.095Z,103806.88
2023-02-11T11:28:27.059Z,103808.66
2023-02-11T11:30:43.485Z,103812.16
2023-02-11T11:32:57.954Z,103802.41
2023-02-11T11:35:06.458Z,103812.03
2023-02-11T11:37:21.752Z,103799.81
2023-02-11T11:39:29.489Z,103799.75
2023-02-11T11:41:37.115Z,103803.34
2023-02-11T11:44:07.734Z,103802.47
2023-02-11T11:46:13.144Z,103803.38
2023-02-11T11:48:26.195Z,103798.94
2023-02-11T11:50:39.356Z,103798.09
2023-02-11T11:52:48.979Z,103802.47
2023-02-11T11:55:01.900Z,103800.72
2023-02-11T11:57:17.612Z,103797.19
2023-02-11T11:59:25.891Z,103798.94
2023-02-11T12:01:46.620Z,103791.03
2023-02-11T12:04:39.448Z,103805.91
2023-02-11T12:06:55.931Z,103813.88
2023-02-11T12:09:12.575Z,103807.59
2023-02-11T12:11:30.191Z,103815.47
2023-02-11T12:13:47.333Z,103818.91
2023-02-11T12:16:07.008Z,103813.88
2023-02-11T12:18:38.306Z,103819.09
2023-02-11T12:20:59.830Z,103823.59
2023-02-11T12:23:34.696Z,103818.31
2023-02-11T12:25:49.643Z,103815.59
2023-02-11T12:28:19.593Z,103811.16
2023-02-11T12:30:40.623Z,103816.47
2023-02-11T12:32:58.584Z,103816.56
2023-02-11T12:35:21.025Z,103815.75
2023-02-11T12:37:39.418Z,103814.81
2023-02-11T12:39:54.349Z,103822.78
2023-02-11T12:42:28.538Z,103803.53
2023-02-11T12:44:56.257Z,103818.38
2023-02-11T12:47:12.840Z,103811.53
2023-02-11T12:49:39.265Z,103814.25
2023-02-11T12:51:56.980Z,103803.72
2023-02-11T12:54:21.057Z,103804.63
2023-02-11T12:56:31.330Z,103815.09
2023-02-11T12:58:47.069Z,103811.69
2023-02-11T13:00:55.940Z,103813.47
2023-02-11T13:03:11.614Z,103813.50
2023-02-11T13:05:27.830Z,103805.66
2023-02-11T13:07:40.251Z,103816.09
2023-02-11T13:09:50.447Z,103809.13
2023-02-11T13:12:21.032Z,103810.94
2023-02-11T13:14:32.576Z,103809.25
2023-02-11T13:16:44.381Z,103805.72
2023-02-11T13:18:58.009Z,103801.25
2023-02-11T13:21:24.934Z,103803.06
2023-02-11T13:23:41.536Z,103796.97
2023-02-11T13:25:51.903Z,103787.44
2023-02-11T13:28:06.312Z,103798.66
2023-02-11T13:30:28.636Z,103786.38
2023-02-11T13:33:09.659Z,103782.09
2023-02-11T13:35:31.098Z,103793.38
2023-02-11T13:37:41.950Z,103796.84
2023-02-11T13:40:02.479Z,103800.44
2023-02-11T13:42:07.710Z,103790.88
2023-02-11T13:44:29.352Z,103798.78
2023-02-11T13:46:54.281Z,103794.28
2023-02-11T13:49:02.463Z,103792.59
2023-02-11T13:51:10.518Z,103793.50
2023-02-11T13:53:16.185Z,103776.72
2023-02-11T13:55:27.638Z,103781.13
2023-02-11T13:57:43.422Z,103777.69
2023-02-11T13:59:57.601Z,103779.44
2023-02-11T14:02:21.596Z,103771.56
2023-02-11T14:04:41.890Z,103775.88
2023-02-11T14:07:46.215Z,103784.75
2023-02-11T14:09:53.480Z,103787.22
2023-02-11T14:12:40.679Z,103785.66
2023-02-11T14:15:15.614Z,103779.28
2023-02-11T14:17:31.088Z,103793.38
2023-02-11T14:19:37.590Z,103790.75
2023-02-11T14:21:45.678Z,103793.31
2023-02-11T14:23:58.347Z,103796.84
2023-02-11T14:26:25.627Z,103796.81
2023-02-11T14:28:36.570Z,103795.97
2023-02-11T14:30:52.452Z,103799.50
2023-02-11T14:33:26.390Z,103787.25
2023-02-11T14:35:35.255Z,103782.09
2023-02-11T14:37:53.786Z,103784.66
2023-02-11T14:40:19.773Z,103779.28
2023-02-11T14:42:31.090Z,103785.41
2023-02-11T14:44:37.310Z,103788.88
2023-02-11T14:47:11.622Z,103792.38
2023-02-11T14:49:28.122Z,103795.88
2023-02-11T14:51:37.088Z,103787.97
2023-02-11T14:53:51.228Z,103801.06
2023-02-11T14:56:00.436Z,103803.69
2023-02-11T14:58:21.611Z,103807.16
2023-02-11T15:00:27.149Z,103808.00
2023-02-11T15:02:36.770Z,103815.91
2023-02-11T15:04:42.272Z,103816.81
2023-02-11T15:06:53.149Z,103808.09
2023-02-11T15:09:01.588Z,103808.88
2023-02-11T15:11:17.426Z,103812.31
2023-02-11T15:13:31.207Z,103797.34
2023-02-11T15:15:43.318Z,103806.97
2023-02-11T15:17:57.607Z,103820.16
2023-02-11T15:20:06.485Z,103821.00
2023-02-11T15:22:22.593Z,103816.56
2023-02-11T15:24:32.814Z,103820.09
2023-02-11T15:26:40.435Z,103813.00
2023-02-11T15:28:52.275Z,103814.66
2023-02-11T15:31:05.110Z,103818.19
2023-02-11T15:33:25.750Z,103819.06
2023-02-11T15:35:38.120Z,103820.84
2023-02-11T15:37:48.290Z,103822.50
2023-02-11T15:39:57.724Z,103808.44
2023-02-11T15:42:27.269Z,103815.47
2023-02-11T15:44:38.411Z,103826.72
2023-02-11T15:46:47.862Z,103829.28
2023-02-11T15:48:56.637Z,103826.72
2023-02-11T15:51:08.357Z,103824.00
2023-02-11T15:53:28.323Z,103827.47
2023-02-11T15:55:35.339Z,103814.31
2023-02-11T15:57:45.837Z,103820.44
2023-02-11T15:59:56.842Z,103812.53
2023-02-11T16:02:10.015Z,103817.78
2023-02-11T16:04:30.488Z,103825.63
2023-02-11T16:06:41.912Z,103824.75
2023-02-11T16:08:59.846Z,103825.56
2023-02-11T16:11:09.216Z,103822.84
2023-02-11T16:13:28.567Z,103825.38
2023-02-11T16:16:01.827Z,103822.78
2023-02-11T16:18:15.773Z,103829.75
2023-02-11T16:20:22.257Z,103831.47
2023-02-11T16:22:30.319Z,103835.75
2023-02-11T16:24:37.023Z,103830.38
2023-02-11T16:26:45.340Z,103833.06
2023-02-11T16:28:54.263Z,103844.34
2023-02-11T16:34:32.244Z,103845.19
2023-02-11T16:36:37.313Z,103842.53
2023-02-11T16:38:42.255Z,103854.72
2023-02-11T16:40:49.814Z,103857.28
2023-02-11T16:42:56.036Z,103862.47
2023-02-11T16:45:04.034Z,103856.34
2023-02-11T16:47:19.696Z,103859.81
2023-02-11T16:49:27.833Z,103858.88
2023-02-11T16:51:33.081Z,103864.94
2023-02-11T16:53:37.940Z,103872.78
2023-02-11T16:55:43.144Z,103875.38
2023-02-11T16:57:51.205Z,103874.44
2023-02-11T17:00:03.891Z,103869.13
2023-02-11T17:02:17.017Z,103866.59
2023-02-11T17:04:24.156Z,103873.53
2023-02-11T17:06:30.119Z,103870.88
2023-02-11T17:08:36.450Z,103874.31
2023-02-11T17:10:41.563Z,103876.00
2023-02-11T17:12:46.881Z,103883.03
2023-02-11T17:14:51.851Z,103880.38
2023-02-11T17:17:02.687Z,103883.81
2023-02-11T17:19:11.015Z,103886.44
2023-02-11T17:21:16.365Z,103875.97
2023-02-11T17:23:21.485Z,103888.22
2023-02-11T17:25:26.883Z,103889.88
2023-02-11T17:27:32.010Z,103884.53
2023-02-11T17:29:37.020Z,103893.25
2023-02-11T17:31:43.131Z,103893.25
2023-02-11T17:33:51.780Z,103895.88
2023-02-11T17:36:06.802Z,103899.31
2023-02-11T17:38:20.151Z,103911.44
2023-02-11T17:40:25.688Z,103897.44
2023-02-11T17:42:31.448Z,103896.56
2023-02-11T17:44:37.508Z,103900.97
2023-02-11T17:46:42.635Z,103902.66
2023-02-11T17:48:47.974Z,103902.66
2023-02-11T17:50:54.575Z,103906.03
2023-02-11T17:53:02.597Z,103912.19
2023-02-11T17:55:08.956Z,103910.44
2023-02-11T17:57:14.856Z,103906.84
2023-02-11T17:59:21.274Z,103909.47
2023-02-11T18:01:26.201Z,103904.28
2023-02-11T18:03:31.095Z,103906.84
2023-02-11T18:05:42.464Z,103911.16
2023-02-11T18:07:48.145Z,103910.31
2023-02-11T18:09:58.950Z,103914.59
2023-02-11T18:12:04.231Z,103922.44
2023-02-11T18:14:10.787Z,103919.03
2023-02-11T18:16:17.370Z,103925.94
2023-02-11T18:18:22.419Z,103932.88
2023-02-11T18:20:27.643Z,103933.69
2023-02-11T18:22:39.815Z,103930.19
2023-02-11T18:24:49.720Z,103941.47
2023-02-11T18:26:57.649Z,103930.03
2023-02-11T18:29:03.965Z,103934.56
2023-02-11T18:31:10.352Z,103931.00
2023-02-11T18:33:21.069Z,103935.31
2023-02-11T18:35:27.029Z,103936.94
2023-02-11T18:37:32.257Z,103938.69
2023-02-11T18:39:37.307Z,103936.88
2023-02-11T18:41:43.803Z,103936.09
2023-02-11T18:43:52.118Z,103943.94
2023-02-11T18:45:57.201Z,103942.13
2023-02-11T18:48:05.561Z,103947.41
2023-02-11T18:50:14.015Z,103946.56
2023-02-11T18:52:19.668Z,103942.25
2023-02-11T18:54:25.043Z,103940.44
2023-02-11T18:56:30.782Z,103945.72
2023-02-11T18:58:37.700Z,103931.59
2023-02-11T19:00:50.922Z,103949.16
2023-02-11T19:02:58.471Z,103944.63
2023-02-11T19:05:06.259Z,103946.31
2023-02-11T19:07:11.492Z,103943.63
2023-02-11T19:09:19.861Z,103960.22
2023-02-11T19:11:45.210Z,103950.56
2023-02-11T19:13:51.931Z,103950.56
2023-02-11T19:16:01.954Z,103949.69
2023-02-11T19:18:07.262Z,103950.50
2023-02-11T19:20:13.034Z,103953.09
2023-02-11T19:22:19.717Z,103952.19
2023-02-11T19:24:26.355Z,103956.59
2023-02-11T19:26:32.574Z,103957.41
2023-02-11T19:28:38.336Z,103953.09
2023-02-11T19:30:45.030Z,103952.19
2023-02-11T19:32:57.173Z,103953.91
2023-02-11T19:35:02.315Z,103943.31
2023-02-11T19:37:07.308Z,103957.34
2023-02-11T19:39:13.172Z,103959.03
2023-02-11T19:41:22.528Z,103959.94
2023-02-11T19:43:30.262Z,103957.22
2023-02-11T19:45:35.133Z,103951.09
2023-02-11T19:47:40.235Z,103958.09
2023-02-11T19:49:51.126Z,103955.41
2023-02-11T19:51:58.571Z,103958.09
2023-02-11T19:54:03.782Z,103972.91
2023-02-11T19:56:12.859Z,103967.69
2023-02-11T19:58:20.913Z,103963.19
2023-02-11T20:00:25.808Z,103974.47
2023-02-11T20:02:31.407Z,103974.41
2023-02-11T20:04:36.387Z,103982.22
2023-02-11T20:06:44.197Z,103973.47
2023-02-11T20:08:49.337Z,103973.59
2023-02-11T20:10:54.442Z,103972.59
2023-02-11T20:12:59.520Z,103982.13
2023-02-11T20:15:04.243Z,103982.91
2023-02-11T20:17:11.277Z,103982.88
2023-02-11T20:19:18.395Z,103990.69
2023-02-11T20:21:26.427Z,103987.19
2023-02-11T20:23:36.455Z,103987.19
2023-02-11T20:25:42.564Z,103995.88
2023-02-11T20:27:47.731Z,103998.50
2023-02-11T20:29:52.733Z,103997.56
2023-02-11T20:31:57.666Z,103999.28
2023-02-11T20:34:03.242Z,104007.13
2023-02-11T20:36:10.533Z,104012.38
2023-02-11T20:38:15.638Z,104007.13
2023-02-11T20:40:24.495Z,104012.28
2023-02-11T20:42:30.550Z,104016.66
2023-02-11T20:44:37.063Z,104018.38
2023-02-11T20:46:46.103Z,104014.97
2023-02-11T20:48:51.545Z,104022.75
2023-02-11T20:50:58.860Z,104014.97
2023-02-11T20:53:03.888Z,104022.69
2023-02-11T20:55:09.521Z,104028.72
2023-02-11T20:57:16.881Z,104026.97
2023-02-11T20:59:22.512Z,104027.78
2023-02-11T21:01:29.744Z,104024.28
2023-02-11T21:03:35.151Z,104030.38
2023-02-11T21:05:40.009Z,104038.38
2023-02-11T21:07:47.131Z,104038.50
2023-02-11T21:09:51.987Z,104044.53
2023-02-11T21:11:57.651Z,104044.53
2023-02-11T21:14:07.267Z,104042.78
2023-02-11T21:16:14.954Z,104038.50
2023-02-11T21:18:20.669Z,104042.06
2023-02-11T21:20:25.662Z,104034.16
2023-02-11T21:22:30.585Z,104043.72
2023-02-11T21:24:37.193Z,104039.28
2023-02-11T21:26:42.575Z,104046.22
2023-02-11T21:28:49.644Z,104049.81
2023-02-11T21:31:00.792Z,104050.63
2023-02-11T21:33:05.719Z,104052.38
2023-02-11T21:35:11.344Z,104053.25
2023-02-11T21:37:16.227Z,104056.78
2023-02-11T21:39:21.271Z,104058.56
2023-02-11T21:41:27.478Z,104066.41
2023-02-11T21:43:41.587Z,104062.91
2023-02-11T21:45:49.545Z,104058.47
2023-02-11T21:47:57.212Z,104068.97
2023-02-11T21:50:02.608Z,104068.97
2023-02-11T21:52:07.886Z,104064.59
2023-02-11T21:54:14.601Z,104069.75
2023-02-11T21:56:21.950Z,104067.19
2023-02-11T21:58:26.709Z,104069.69
2023-02-11T22:00:32.065Z,104075.75
2023-02-11T22:02:36.973Z,104074.84
2023-02-11T22:04:44.643Z,104070.47
2023-02-11T22:06:50.755Z,104067.78
2023-02-11T22:08:56.072Z,104077.38
2023-02-11T22:11:05.562Z,104063.38
2023-02-11T22:13:10.437Z,104072.09
2023-02-11T22:15:16.448Z,104072.06
2023-02-11T22:17:22.049Z,104072.88
2023-02-11T22:19:27.562Z,104069.38
2023-02-11T22:21:35.144Z,104074.50
2023-02-11T22:23:40.998Z,104068.34
2023-02-11T22:25:46.126Z,104079.69
2023-02-11T22:27:51.576Z,104069.09
2023-02-11T22:29:59.778Z,104069.97
2023-02-11T22:32:07.066Z,104070.78
2023-02-11T22:34:12.086Z,104066.50
2023-02-11T22:36:23.463Z,104076.06
2023-02-11T22:38:32.106Z,104069.91
2023-02-11T22:40:37.106Z,104065.53
2023-02-11T22:42:41.972Z,104065.59
2023-02-11T22:44:47.031Z,104075.25
2023-02-11T22:46:53.652Z,104069.19
2023-02-11T22:48:59.656Z,104068.31
2023-02-11T22:51:08.444Z,104070.03
2023-02-11T22:53:13.455Z,104068.22
2023-02-11T22:55:21.036Z,104067.34
2023-02-11T22:57:26.071Z,104078.69
2023-02-11T22:59:31.027Z,104071.69
2023-02-11T23:01:36.809Z,104069.03
2023-02-11T23:03:42.614Z,104075.13
2023-02-11T23:05:50.617Z,104072.44
2023-02-11T23:07:55.651Z,104068.09
2023-02-11T23:10:00.785Z,104074.16
2023-02-11T23:12:11.528Z,104075.00
2023-02-11T23:14:16.801Z,104075.09
2023-02-11T23:16:24.905Z,104080.34
2023-02-11T23:18:29.845Z,104086.44
2023-02-11T23:20:36.835Z,104084.63
2023-02-11T23:22:41.812Z,104093.28
2023-02-11T23:24:46.831Z,104089.00
2023-02-11T23:26:51.807Z,104092.47
2023-02-11T23:29:02.831Z,104086.31
2023-02-11T23:31:16.232Z,104089.00
2023-02-11T23:33:21.215Z,104089.84
2023-02-11T23:35:26.179Z,104089.00
2023-02-11T23:37:31.055Z,104091.59
2023-02-11T23:39:37.936Z,104081.22
2023-02-11T23:41:42.843Z,104085.50
2023-02-11T23:43:47.901Z,104083.78
2023-02-11T23:45:56.010Z,104088.13
2023-02-11T23:48:01.209Z,104089.78
2023-02-11T23:50:06.409Z,104090.78
2023-02-11T23:52:11.336Z,104088.06
2023-02-11T23:54:17.980Z,104085.63
2023-02-11T23:56:25.842Z,104085.44
2023-02-11T23:58:30.702Z,104083.75
